createdAt,value
2022-12-14T00:00:09.503Z,-0.24
2022-12-14T00:00:21.501Z,-0.23
2022-12-14T00:00:33.596Z,-0.22
2022-12-14T00:00:46.557Z,-0.23
2022-12-14T00:00:58.649Z,-0.25
2022-12-14T00:01:16.224Z,-0.25
2022-12-14T00:01:28.507Z,-0.25
2022-12-14T00:01:40.492Z,-0.24
2022-12-14T00:01:52.898Z,-0.24
2022-12-14T00:02:06.519Z,-0.23
2022-12-14T00:02:18.519Z,-0.24
2022-12-14T00:02:30.629Z,-0.24
2022-12-14T00:02:42.829Z,-0.23
2022-12-14T00:02:55.622Z,-0.20
2022-12-14T00:03:08.769Z,-0.19
2022-12-14T00:03:21.338Z,-0.22
2022-12-14T00:03:33.389Z,-0.20
2022-12-14T00:03:48.750Z,-0.18
2022-12-14T00:04:00.746Z,-0.19
2022-12-14T00:04:12.943Z,-0.17
2022-12-14T00:04:24.967Z,-0.15
2022-12-14T00:04:36.968Z,-0.19
2022-12-14T00:04:48.958Z,-0.17
2022-12-14T00:05:00.839Z,-0.17
2022-12-14T00:05:12.738Z,-0.18
2022-12-14T00:05:24.701Z,-0.17
2022-12-14T00:05:36.659Z,-0.21
2022-12-14T00:05:48.721Z,-0.19
2022-12-14T00:06:08.283Z,-0.19
2022-12-14T00:06:23.274Z,-0.16
2022-12-14T00:06:35.280Z,-0.15
2022-12-14T00:06:47.278Z,-0.15
2022-12-14T00:06:59.179Z,-0.14
2022-12-14T00:07:11.135Z,-0.12
2022-12-14T00:07:23.127Z,-0.10
2022-12-14T00:07:35.080Z,-0.11
2022-12-14T00:07:47.045Z,-0.10
2022-12-14T00:08:01.832Z,-0.10
2022-12-14T00:08:15.364Z,-0.08
2022-12-14T00:08:27.661Z,-0.10
2022-12-14T00:08:42.028Z,-0.11
2022-12-14T00:08:57.615Z,-0.11
2022-12-14T00:09:09.798Z,-0.09
2022-12-14T00:09:21.797Z,-0.08
2022-12-14T00:09:33.759Z,-0.08
2022-12-14T00:09:47.051Z,-0.06
2022-12-14T00:09:59.120Z,-0.06
2022-12-14T00:10:11.542Z,-0.06
2022-12-14T00:10:23.694Z,-0.06
2022-12-14T00:10:37.731Z,-0.04
2022-12-14T00:10:49.673Z,-0.02
2022-12-14T00:11:01.563Z,-0.02
2022-12-14T00:11:17.033Z,-0.02
2022-12-14T00:11:29.211Z,-0.03
2022-12-14T00:11:41.378Z,-0.03
2022-12-14T00:11:53.341Z,0.00
2022-12-14T00:12:05.345Z,-0.02
2022-12-14T00:12:17.506Z,-0.02
2022-12-14T00:12:29.546Z,0.01
2022-12-14T00:12:41.442Z,0.01
2022-12-14T00:12:53.517Z,0.01
2022-12-14T00:13:06.864Z,0.01
2022-12-14T00:13:18.758Z,0.00
2022-12-14T00:13:30.668Z,0.02
2022-12-14T00:13:43.965Z,0.03
2022-12-14T00:14:02.932Z,0.02
2022-12-14T00:14:14.961Z,0.02
2022-12-14T00:14:26.855Z,0.01
2022-12-14T00:14:39.901Z,0.01
2022-12-14T00:14:51.794Z,0.02
2022-12-14T00:15:04.520Z,0.03
2022-12-14T00:15:16.464Z,0.02
2022-12-14T00:15:28.703Z,0.04
2022-12-14T00:15:41.135Z,0.03
2022-12-14T00:15:53.165Z,0.03
2022-12-14T00:16:24.550Z,0.02
2022-12-14T00:16:36.561Z,0.01
2022-12-14T00:16:48.535Z,-0.02
2022-12-14T00:17:00.468Z,-0.01
2022-12-14T00:17:12.367Z,0.01
2022-12-14T00:17:24.262Z,0.01
2022-12-14T00:17:36.171Z,0.01
2022-12-14T00:17:48.051Z,0.01
2022-12-14T00:18:00.422Z,-0.03
2022-12-14T00:18:12.415Z,-0.03
2022-12-14T00:18:24.894Z,-0.04
2022-12-14T00:18:37.079Z,-0.06
2022-12-14T00:18:52.361Z,-0.03
2022-12-14T00:19:05.642Z,-0.03
2022-12-14T00:19:18.142Z,-0.04
2022-12-14T00:19:30.143Z,-0.03
2022-12-14T00:19:42.112Z,-0.02
2022-12-14T00:19:54.873Z,-0.03
2022-12-14T00:20:07.956Z,-0.04
2022-12-14T00:20:20.401Z,-0.03
2022-12-14T00:20:33.717Z,-0.03
2022-12-14T00:20:45.620Z,-0.06
2022-12-14T00:21:06.807Z,-0.06
2022-12-14T00:21:18.872Z,-0.07
2022-12-14T00:21:30.768Z,-0.05
2022-12-14T00:21:42.669Z,-0.05
2022-12-14T00:21:54.683Z,-0.05
2022-12-14T00:22:06.574Z,-0.03
2022-12-14T00:22:18.549Z,-0.03
2022-12-14T00:22:30.487Z,-0.02
2022-12-14T00:22:42.452Z,-0.04
2022-12-14T00:22:55.360Z,-0.02
2022-12-14T00:23:07.345Z,-0.02
2022-12-14T00:23:19.510Z,-0.01
2022-12-14T00:23:37.189Z,-0.02
2022-12-14T00:23:52.434Z,-0.02
2022-12-14T00:24:04.567Z,-0.03
2022-12-14T00:24:16.493Z,-0.02
2022-12-14T00:24:28.804Z,-0.02
2022-12-14T00:24:40.748Z,-0.01
2022-12-14T00:24:52.670Z,-0.02
2022-12-14T00:25:04.969Z,0.02
2022-12-14T00:25:17.068Z,-0.07
2022-12-14T00:25:28.987Z,-0.07
2022-12-14T00:25:40.878Z,-0.04
2022-12-14T00:25:52.961Z,-0.04
2022-12-14T00:26:13.683Z,-0.03
2022-12-14T00:26:31.122Z,-0.02
2022-12-14T00:26:43.512Z,-0.01
2022-12-14T00:26:55.518Z,0.01
2022-12-14T00:27:07.408Z,0.02
2022-12-14T00:27:19.367Z,0.03
2022-12-14T00:27:31.269Z,0.03
2022-12-14T00:27:44.928Z,0.04
2022-12-14T00:27:56.867Z,0.03
2022-12-14T00:28:08.758Z,0.05
2022-12-14T00:28:20.705Z,0.05
2022-12-14T00:28:32.664Z,0.05
2022-12-14T00:28:46.385Z,0.06
2022-12-14T00:29:00.183Z,0.07
2022-12-14T00:29:12.115Z,0.07
2022-12-14T00:29:24.066Z,0.08
2022-12-14T00:29:36.065Z,0.09
2022-12-14T00:29:48.001Z,0.02
2022-12-14T00:29:59.909Z,0.04
2022-12-14T00:30:18.030Z,0.04
2022-12-14T00:30:30.055Z,0.03
2022-12-14T00:30:42.134Z,0.05
2022-12-14T00:30:58.498Z,0.02
2022-12-14T00:31:11.737Z,0.03
2022-12-14T00:31:25.276Z,0.05
2022-12-14T00:31:37.491Z,0.05
2022-12-14T00:31:50.000Z,0.07
2022-12-14T00:32:01.957Z,0.07
2022-12-14T00:32:13.916Z,0.07
2022-12-14T00:32:25.871Z,0.07
2022-12-14T00:32:37.868Z,0.08
2022-12-14T00:32:49.754Z,0.06
2022-12-14T00:33:01.784Z,0.06
2022-12-14T00:33:13.714Z,0.06
2022-12-14T00:33:25.638Z,-0.03
2022-12-14T00:33:37.882Z,0.01
2022-12-14T00:33:50.619Z,-0.01
2022-12-14T00:34:02.635Z,-0.01
2022-12-14T00:34:14.632Z,-0.03
2022-12-14T00:34:26.525Z,0.00
2022-12-14T00:34:38.625Z,-0.01
2022-12-14T00:34:50.687Z,-0.01
2022-12-14T00:35:02.664Z,-0.05
2022-12-14T00:35:17.364Z,-0.02
2022-12-14T00:35:29.434Z,-0.04
2022-12-14T00:35:41.380Z,-0.03
2022-12-14T00:35:53.383Z,-0.01
2022-12-14T00:36:07.827Z,0.00
2022-12-14T00:36:20.190Z,0.01
2022-12-14T00:36:32.264Z,0.02
2022-12-14T00:36:44.223Z,0.01
2022-12-14T00:36:56.214Z,0.02
2022-12-14T00:37:08.091Z,0.03
2022-12-14T00:37:20.032Z,0.05
2022-12-14T00:37:31.995Z,0.06
2022-12-14T00:37:44.451Z,0.05
2022-12-14T00:38:00.783Z,0.03
2022-12-14T00:38:12.676Z,0.04
2022-12-14T00:38:25.004Z,0.04
2022-12-14T00:38:37.836Z,0.05
2022-12-14T00:38:49.937Z,0.03
2022-12-14T00:39:01.847Z,0.06
2022-12-14T00:39:13.793Z,0.05
2022-12-14T00:39:25.683Z,0.08
2022-12-14T00:39:37.577Z,0.04
2022-12-14T00:39:49.556Z,0.04
2022-12-14T00:40:01.647Z,0.02
2022-12-14T00:40:13.759Z,-0.01
2022-12-14T00:40:25.713Z,0.03
2022-12-14T00:40:37.683Z,0.02
2022-12-14T00:40:50.273Z,0.04
2022-12-14T00:41:02.359Z,-0.04
2022-12-14T00:41:14.392Z,-0.06
2022-12-14T00:41:26.339Z,-0.05
2022-12-14T00:41:38.283Z,-0.04
2022-12-14T00:41:50.197Z,-0.03
2022-12-14T00:42:02.162Z,-0.07
2022-12-14T00:42:14.351Z,-0.05
2022-12-14T00:42:26.340Z,-0.06
2022-12-14T00:42:38.279Z,-0.05
2022-12-14T00:42:50.243Z,-0.04
2022-12-14T00:43:02.184Z,-0.02
2022-12-14T00:43:14.134Z,-0.01
2022-12-14T00:43:26.311Z,-0.02
2022-12-14T00:43:38.744Z,-0.09
2022-12-14T00:43:50.682Z,-0.09
2022-12-14T00:44:02.719Z,-0.09
2022-12-14T00:44:15.366Z,-0.07
2022-12-14T00:44:27.295Z,-0.05
2022-12-14T00:44:39.224Z,-0.03
2022-12-14T00:44:51.169Z,-0.03
2022-12-14T00:45:04.930Z,-0.05
2022-12-14T00:45:16.846Z,-0.14
2022-12-14T00:45:28.817Z,-0.14
2022-12-14T00:45:43.982Z,-0.14
2022-12-14T00:45:56.171Z,-0.14
2022-12-14T00:46:08.372Z,-0.14
2022-12-14T00:46:20.681Z,-0.12
2022-12-14T00:46:32.672Z,-0.16
2022-12-14T00:46:44.590Z,-0.13
2022-12-14T00:46:56.653Z,-0.14
2022-12-14T00:47:08.599Z,-0.12
2022-12-14T00:47:20.496Z,-0.09
2022-12-14T00:47:37.511Z,-0.06
2022-12-14T00:47:52.368Z,-0.07
2022-12-14T00:48:04.632Z,-0.07
2022-12-14T00:48:18.955Z,-0.06
2022-12-14T00:48:31.778Z,-0.07
2022-12-14T00:48:44.226Z,-0.05
2022-12-14T00:48:56.110Z,-0.05
2022-12-14T00:49:08.046Z,-0.04
2022-12-14T00:49:19.922Z,-0.03
2022-12-14T00:49:31.793Z,-0.02
2022-12-14T00:49:43.977Z,-0.01
2022-12-14T00:49:55.954Z,0.01
2022-12-14T00:50:08.379Z,0.03
2022-12-14T00:50:20.334Z,0.04
2022-12-14T00:50:32.314Z,0.02
2022-12-14T00:50:48.556Z,0.03
2022-12-14T00:51:00.928Z,0.04
2022-12-14T00:51:14.678Z,0.04
2022-12-14T00:51:26.736Z,0.05
2022-12-14T00:51:38.745Z,0.03
2022-12-14T00:51:50.731Z,0.05
2022-12-14T00:52:02.756Z,0.07
2022-12-14T00:52:14.695Z,0.06
2022-12-14T00:52:26.711Z,0.04
2022-12-14T00:52:38.655Z,0.07
2022-12-14T00:52:50.555Z,0.06
2022-12-14T00:53:02.520Z,0.08
2022-12-14T00:53:14.461Z,0.08
2022-12-14T00:53:26.399Z,0.04
2022-12-14T00:53:38.346Z,0.07
2022-12-14T00:53:50.321Z,0.08
2022-12-14T00:54:02.300Z,0.08
2022-12-14T00:54:14.214Z,0.07
2022-12-14T00:54:26.198Z,0.07
2022-12-14T00:54:38.123Z,0.09
2022-12-14T00:54:50.086Z,0.07
2022-12-14T00:55:02.102Z,0.10
2022-12-14T00:55:14.135Z,0.10
2022-12-14T00:55:26.616Z,0.09
2022-12-14T00:55:42.259Z,0.12
2022-12-14T00:55:54.270Z,0.11
2022-12-14T00:56:07.892Z,0.10
2022-12-14T00:56:19.998Z,0.10
2022-12-14T00:56:32.040Z,0.09
2022-12-14T00:56:44.042Z,0.12
2022-12-14T00:56:55.939Z,0.09
2022-12-14T00:57:08.173Z,0.08
2022-12-14T00:57:20.141Z,0.08
2022-12-14T00:57:32.035Z,0.07
2022-12-14T00:57:44.007Z,0.07
2022-12-14T00:57:55.996Z,0.09
2022-12-14T00:58:10.141Z,0.08
2022-12-14T00:58:24.894Z,0.10
2022-12-14T00:58:37.074Z,0.12
2022-12-14T00:58:53.466Z,0.13
2022-12-14T00:59:05.462Z,0.14
2022-12-14T00:59:22.873Z,0.15
2022-12-14T00:59:37.698Z,0.15
2022-12-14T00:59:49.618Z,0.17
2022-12-14T01:00:01.558Z,0.16
2022-12-14T01:00:14.040Z,0.17
2022-12-14T01:00:26.001Z,0.18
2022-12-14T01:00:38.116Z,0.19
2022-12-14T01:01:02.253Z,0.07
2022-12-14T01:01:14.364Z,0.06
2022-12-14T01:01:26.495Z,0.10
2022-12-14T01:01:38.704Z,0.08
2022-12-14T01:01:50.814Z,0.08
2022-12-14T01:02:03.065Z,0.07
2022-12-14T01:02:15.109Z,0.07
2022-12-14T01:02:27.240Z,0.08
2022-12-14T01:02:39.314Z,0.06
2022-12-14T01:02:51.322Z,0.05
2022-12-14T01:03:03.663Z,0.03
2022-12-14T01:03:15.914Z,-0.03
2022-12-14T01:03:28.540Z,0.03
2022-12-14T01:03:40.865Z,-0.06
2022-12-14T01:04:13.101Z,-0.06
2022-12-14T01:04:26.079Z,-0.04
2022-12-14T01:04:38.089Z,0.01
2022-12-14T01:04:49.981Z,0.02
2022-12-14T01:05:01.882Z,0.02
2022-12-14T01:05:13.806Z,0.02
2022-12-14T01:05:25.713Z,-0.02
2022-12-14T01:05:39.056Z,-0.07
2022-12-14T01:05:51.007Z,-0.05
2022-12-14T01:06:03.170Z,-0.04
2022-12-14T01:06:21.786Z,-0.01
2022-12-14T01:06:33.697Z,-0.29
2022-12-14T01:06:51.087Z,-0.29
2022-12-14T01:07:03.131Z,-0.30
2022-12-14T01:07:15.156Z,-0.28
2022-12-14T01:07:27.134Z,-0.25
2022-12-14T01:07:39.076Z,-0.21
2022-12-14T01:07:51.060Z,-0.16
2022-12-14T01:08:03.427Z,-0.13
2022-12-14T01:08:15.648Z,-0.12
2022-12-14T01:08:35.243Z,-0.09
2022-12-14T01:08:48.796Z,-0.07
2022-12-14T01:09:00.693Z,-0.07
2022-12-14T01:09:13.570Z,-0.03
2022-12-14T01:09:26.593Z,-0.03
2022-12-14T01:09:38.595Z,-0.02
2022-12-14T01:09:50.531Z,-0.04
2022-12-14T01:10:02.454Z,-0.01
2022-12-14T01:10:14.421Z,0.00
2022-12-14T01:10:26.352Z,0.02
2022-12-14T01:10:40.380Z,0.03
2022-12-14T01:10:52.441Z,0.05
2022-12-14T01:11:06.674Z,0.08
2022-12-14T01:11:18.580Z,0.08
2022-12-14T01:11:30.471Z,0.10
2022-12-14T01:11:43.988Z,0.10
2022-12-14T01:11:55.903Z,0.10
2022-12-14T01:12:07.903Z,0.12
2022-12-14T01:12:19.864Z,0.12
2022-12-14T01:12:31.763Z,0.13
2022-12-14T01:12:43.696Z,0.14
2022-12-14T01:12:55.652Z,0.14
2022-12-14T01:13:07.691Z,0.15
2022-12-14T01:13:19.639Z,0.18
2022-12-14T01:13:31.655Z,0.15
2022-12-14T01:13:43.708Z,0.17
2022-12-14T01:13:55.962Z,0.11
2022-12-14T01:14:08.411Z,0.12
2022-12-14T01:14:21.248Z,0.13
2022-12-14T01:14:33.297Z,0.14
2022-12-14T01:14:46.362Z,0.15
2022-12-14T01:14:58.537Z,0.13
2022-12-14T01:15:10.861Z,0.12
2022-12-14T01:15:22.887Z,0.12
2022-12-14T01:15:36.099Z,0.13
2022-12-14T01:15:48.099Z,0.10
2022-12-14T01:16:11.927Z,0.08
2022-12-14T01:16:23.867Z,0.06
2022-12-14T01:16:36.080Z,0.05
2022-12-14T01:16:48.074Z,0.04
2022-12-14T01:16:59.974Z,0.03
2022-12-14T01:17:12.222Z,0.00
2022-12-14T01:17:24.118Z,0.02
2022-12-14T01:17:36.003Z,0.01
2022-12-14T01:17:47.974Z,0.05
2022-12-14T01:17:59.880Z,0.04
2022-12-14T01:18:11.887Z,0.03
2022-12-14T01:18:23.851Z,0.02
2022-12-14T01:18:37.304Z,0.04
2022-12-14T01:18:49.317Z,0.06
2022-12-14T01:19:02.552Z,0.05
2022-12-14T01:19:19.096Z,0.04
2022-12-14T01:19:31.153Z,-0.06
2022-12-14T01:19:43.063Z,-0.07
2022-12-14T01:19:55.041Z,-0.04
2022-12-14T01:20:07.529Z,-0.04
2022-12-14T01:20:19.917Z,-0.03
2022-12-14T01:20:31.873Z,-0.01
2022-12-14T01:20:43.875Z,-0.03
2022-12-14T01:20:55.772Z,-0.02
2022-12-14T01:21:18.137Z,0.00
2022-12-14T01:21:30.391Z,-0.01
2022-12-14T01:21:42.362Z,0.02
2022-12-14T01:21:54.385Z,0.03
2022-12-14T01:22:06.387Z,0.03
2022-12-14T01:22:18.328Z,0.02
2022-12-14T01:22:30.344Z,0.04
2022-12-14T01:22:42.300Z,0.06
2022-12-14T01:22:56.204Z,0.08
2022-12-14T01:23:08.108Z,0.09
2022-12-14T01:23:20.015Z,0.11
2022-12-14T01:23:31.949Z,0.12
2022-12-14T01:23:45.104Z,0.13
2022-12-14T01:23:59.614Z,0.15
2022-12-14T01:24:11.565Z,0.18
2022-12-14T01:24:23.450Z,0.17
2022-12-14T01:24:35.353Z,0.16
2022-12-14T01:24:47.726Z,0.18
2022-12-14T01:24:59.742Z,0.20
2022-12-14T01:25:11.798Z,0.20
2022-12-14T01:25:24.061Z,0.22
2022-12-14T01:25:35.985Z,0.24
2022-12-14T01:25:48.837Z,0.26
2022-12-14T01:26:00.939Z,0.25
2022-12-14T01:26:17.459Z,0.26
2022-12-14T01:26:33.219Z,0.26
2022-12-14T01:26:45.282Z,0.23
2022-12-14T01:26:57.227Z,0.23
2022-12-14T01:27:09.242Z,0.23
2022-12-14T01:27:21.478Z,0.23
2022-12-14T01:27:33.415Z,0.24
2022-12-14T01:27:45.991Z,0.26
2022-12-14T01:27:57.894Z,0.27
2022-12-14T01:28:09.841Z,0.26
2022-12-14T01:28:21.732Z,0.27
2022-12-14T01:28:35.039Z,0.30
2022-12-14T01:28:48.192Z,0.31
2022-12-14T01:29:00.338Z,0.31
2022-12-14T01:29:12.894Z,0.33
2022-12-14T01:29:24.935Z,0.32
2022-12-14T01:29:37.023Z,0.34
2022-12-14T01:29:49.028Z,0.34
2022-12-14T01:30:00.979Z,0.24
2022-12-14T01:30:13.447Z,0.23
2022-12-14T01:30:25.349Z,0.10
2022-12-14T01:30:39.503Z,0.03
2022-12-14T01:30:51.947Z,0.04
2022-12-14T01:31:09.475Z,0.08
2022-12-14T01:31:24.914Z,-0.15
2022-12-14T01:31:38.916Z,-0.09
2022-12-14T01:31:50.909Z,-0.06
2022-12-14T01:32:02.835Z,-0.07
2022-12-14T01:32:14.721Z,-0.04
2022-12-14T01:32:26.669Z,-0.03
2022-12-14T01:32:38.778Z,-0.02
2022-12-14T01:32:50.670Z,-0.01
2022-12-14T01:33:02.574Z,0.02
2022-12-14T01:33:14.483Z,0.03
2022-12-14T01:33:26.624Z,0.06
2022-12-14T01:33:38.978Z,0.06
2022-12-14T01:33:51.638Z,0.09
2022-12-14T01:34:03.780Z,0.12
2022-12-14T01:34:15.882Z,0.13
2022-12-14T01:34:27.903Z,0.15
2022-12-14T01:34:39.944Z,0.17
2022-12-14T01:34:51.887Z,0.19
2022-12-14T01:35:04.340Z,0.18
2022-12-14T01:35:17.273Z,0.16
2022-12-14T01:35:29.247Z,0.19
2022-12-14T01:35:41.133Z,0.21
2022-12-14T01:35:53.206Z,0.21
2022-12-14T01:36:10.619Z,0.22
2022-12-14T01:36:28.345Z,0.25
2022-12-14T01:36:40.361Z,0.26
2022-12-14T01:36:52.323Z,0.26
2022-12-14T01:37:04.963Z,0.26
2022-12-14T01:37:17.000Z,0.26
2022-12-14T01:37:28.987Z,0.26
2022-12-14T01:37:41.008Z,0.24
2022-12-14T01:37:52.986Z,0.26
2022-12-14T01:38:04.931Z,0.25
2022-12-14T01:38:16.861Z,0.26
2022-12-14T01:38:28.752Z,0.24
2022-12-14T01:38:40.925Z,0.26
2022-12-14T01:38:58.780Z,0.27
2022-12-14T01:39:13.623Z,0.29
2022-12-14T01:39:25.845Z,0.29
2022-12-14T01:39:37.779Z,0.30
2022-12-14T01:39:49.650Z,0.30
2022-12-14T01:40:01.554Z,0.33
2022-12-14T01:40:13.543Z,0.34
2022-12-14T01:40:25.516Z,0.35
2022-12-14T01:40:37.492Z,0.36
2022-12-14T01:40:49.436Z,0.36
2022-12-14T01:41:01.828Z,0.35
2022-12-14T01:41:25.624Z,0.37
2022-12-14T01:41:43.672Z,0.36
2022-12-14T01:41:55.674Z,0.37
2022-12-14T01:42:15.398Z,0.34
2022-12-14T01:42:27.326Z,0.35
2022-12-14T01:42:39.253Z,0.35
2022-12-14T01:42:51.219Z,0.37
2022-12-14T01:43:03.143Z,0.35
2022-12-14T01:43:15.152Z,0.36
2022-12-14T01:43:47.083Z,0.38
2022-12-14T01:44:03.530Z,0.34
2022-12-14T01:44:18.128Z,0.35
2022-12-14T01:44:30.005Z,0.35
2022-12-14T01:44:44.704Z,0.38
2022-12-14T01:44:58.440Z,0.38
2022-12-14T01:45:22.038Z,0.35
2022-12-14T01:45:33.939Z,0.35
2022-12-14T01:45:45.946Z,0.34
2022-12-14T01:45:58.589Z,0.35
2022-12-14T01:46:10.572Z,0.32
2022-12-14T01:46:47.674Z,0.36
2022-12-14T01:47:12.131Z,0.35
2022-12-14T01:47:36.394Z,0.25
2022-12-14T01:47:58.560Z,0.27
2022-12-14T01:48:13.347Z,0.28
2022-12-14T01:48:25.372Z,0.28
2022-12-14T01:48:37.353Z,0.29
2022-12-14T01:48:53.257Z,0.28
2022-12-14T01:49:10.573Z,0.28
2022-12-14T01:49:28.638Z,0.31
2022-12-14T01:49:43.518Z,0.32
2022-12-14T01:50:18.219Z,0.34
2022-12-14T01:50:35.432Z,0.33
2022-12-14T01:50:47.581Z,0.34
2022-12-14T01:50:59.502Z,0.34
2022-12-14T01:51:11.434Z,0.29
2022-12-14T01:51:24.996Z,0.29
2022-12-14T01:51:38.573Z,0.31
2022-12-14T01:51:58.372Z,0.31
2022-12-14T01:52:17.427Z,0.31
2022-12-14T01:52:45.085Z,0.29
2022-12-14T01:53:05.802Z,0.28
2022-12-14T01:53:21.692Z,0.30
2022-12-14T01:53:33.709Z,0.30
2022-12-14T01:53:46.905Z,0.31
2022-12-14T01:54:01.769Z,0.31
2022-12-14T01:54:16.123Z,0.30
2022-12-14T01:54:31.948Z,0.28
2022-12-14T01:54:53.877Z,0.29
2022-12-14T01:55:05.973Z,0.28
2022-12-14T01:55:56.586Z,0.30
2022-12-14T01:56:08.677Z,0.32
2022-12-14T01:56:20.848Z,0.32
2022-12-14T01:56:38.352Z,0.33
2022-12-14T01:56:51.615Z,0.33
2022-12-14T01:57:04.203Z,0.33
2022-12-14T01:57:19.111Z,0.34
2022-12-14T01:58:03.441Z,0.37
2022-12-14T01:58:23.415Z,0.38
2022-12-14T01:58:35.378Z,0.34
2022-12-14T01:58:47.452Z,0.32
2022-12-14T01:59:04.191Z,0.33
2022-12-14T01:59:23.149Z,0.35
2022-12-14T01:59:40.095Z,0.33
2022-12-14T01:59:52.811Z,0.33
2022-12-14T02:00:08.798Z,0.34
2022-12-14T02:00:21.202Z,0.35
2022-12-14T02:00:33.244Z,0.33
2022-12-14T02:00:45.445Z,0.37
2022-12-14T02:01:01.409Z,0.36
2022-12-14T02:01:13.865Z,0.36
2022-12-14T02:01:26.056Z,0.36
2022-12-14T02:01:38.424Z,0.36
2022-12-14T02:01:52.028Z,0.33
2022-12-14T02:02:08.021Z,0.31
2022-12-14T02:02:21.791Z,0.30
2022-12-14T02:02:35.924Z,0.30
2022-12-14T02:02:57.046Z,0.27
2022-12-14T02:03:30.563Z,0.24
2022-12-14T02:03:49.484Z,0.20
2022-12-14T02:04:02.499Z,0.18
2022-12-14T02:04:17.290Z,0.13
2022-12-14T02:04:30.754Z,0.14
2022-12-14T02:04:47.250Z,0.15
2022-12-14T02:05:02.544Z,0.16
2022-12-14T02:05:16.808Z,0.19
2022-12-14T02:05:30.245Z,0.21
2022-12-14T02:05:48.472Z,0.22
2022-12-14T02:06:05.728Z,0.21
2022-12-14T02:06:22.579Z,0.22
2022-12-14T02:06:38.295Z,0.24
2022-12-14T02:06:56.456Z,0.24
2022-12-14T02:07:14.433Z,0.26
2022-12-14T02:07:29.023Z,0.23
2022-12-14T02:07:44.164Z,0.23
2022-12-14T02:08:02.596Z,0.23
2022-12-14T02:08:17.356Z,0.24
2022-12-14T02:08:29.995Z,0.21
2022-12-14T02:08:43.448Z,0.20
2022-12-14T02:08:58.534Z,0.24
2022-12-14T02:09:16.559Z,0.21
2022-12-14T02:09:33.065Z,0.22
2022-12-14T02:09:46.701Z,0.22
2022-12-14T02:10:02.875Z,0.12
2022-12-14T02:10:15.823Z,0.15
2022-12-14T02:10:30.366Z,0.10
2022-12-14T02:10:44.119Z,0.08
2022-12-14T02:10:57.460Z,0.11
2022-12-14T02:11:09.892Z,0.11
2022-12-14T02:12:00.801Z,0.09
2022-12-14T02:12:17.242Z,0.09
2022-12-14T02:12:39.203Z,0.06
2022-12-14T02:12:58.626Z,0.11
2022-12-14T02:13:19.431Z,0.11
2022-12-14T02:13:33.805Z,0.10
2022-12-14T02:13:46.241Z,0.08
2022-12-14T02:14:01.015Z,0.09
2022-12-14T02:14:12.986Z,0.05
2022-12-14T02:14:25.249Z,0.08
2022-12-14T02:14:38.574Z,0.09
2022-12-14T02:14:53.243Z,0.07
2022-12-14T02:15:06.201Z,0.08
2022-12-14T02:15:18.662Z,0.11
2022-12-14T02:15:31.577Z,0.12
2022-12-14T02:15:44.137Z,0.14
2022-12-14T02:15:56.107Z,0.09
2022-12-14T02:16:08.490Z,0.09
2022-12-14T02:16:20.594Z,0.08
2022-12-14T02:16:32.839Z,0.07
2022-12-14T02:16:44.810Z,0.07
2022-12-14T02:16:57.683Z,0.11
2022-12-14T02:17:12.068Z,0.14
2022-12-14T02:17:24.430Z,0.14
2022-12-14T02:17:36.560Z,0.15
2022-12-14T02:17:48.891Z,0.15
2022-12-14T02:18:03.299Z,0.16
2022-12-14T02:18:21.002Z,0.17
2022-12-14T02:18:33.897Z,0.16
2022-12-14T02:18:45.947Z,0.13
2022-12-14T02:18:57.861Z,0.16
2022-12-14T02:19:09.804Z,0.17
2022-12-14T02:19:22.208Z,0.17
2022-12-14T02:19:35.730Z,0.17
2022-12-14T02:19:49.368Z,0.15
2022-12-14T02:20:02.684Z,0.16
2022-12-14T02:20:16.177Z,0.17
2022-12-14T02:20:38.512Z,0.19
2022-12-14T02:21:02.375Z,0.20
2022-12-14T02:21:20.745Z,0.18
2022-12-14T02:21:54.882Z,0.18
2022-12-14T02:22:24.714Z,0.18
2022-12-14T02:23:14.142Z,0.18
2022-12-14T02:23:53.384Z,0.08
2022-12-14T02:24:28.362Z,0.12
2022-12-14T02:24:43.014Z,0.10
2022-12-14T02:25:17.563Z,0.10
2022-12-14T02:25:44.541Z,0.12
2022-12-14T02:26:28.578Z,0.13
2022-12-14T02:26:55.390Z,0.14
2022-12-14T02:27:38.318Z,0.12
2022-12-14T02:28:20.718Z,0.11
2022-12-14T02:29:06.567Z,0.09
2022-12-14T02:29:36.425Z,0.11
2022-12-14T02:29:56.984Z,0.09
2022-12-14T02:30:22.651Z,0.14
2022-12-14T02:30:40.839Z,0.13
2022-12-14T02:31:04.537Z,0.15
2022-12-14T02:31:38.575Z,0.06
2022-12-14T02:32:14.697Z,0.10
2022-12-14T02:32:51.753Z,0.11
2022-12-14T02:33:09.534Z,0.10
2022-12-14T02:33:41.709Z,0.08
2022-12-14T02:34:18.132Z,0.11
2022-12-14T02:34:58.473Z,0.08
2022-12-14T02:35:37.648Z,0.07
2022-12-14T02:36:07.533Z,0.08
2022-12-14T02:36:35.127Z,0.08
2022-12-14T02:37:00.108Z,0.08
2022-12-14T02:37:21.125Z,0.09
2022-12-14T02:37:44.589Z,0.10
2022-12-14T02:38:25.710Z,0.10
2022-12-14T02:39:18.862Z,0.10
2022-12-14T02:40:00.882Z,0.12
2022-12-14T02:40:27.485Z,0.12
2022-12-14T02:41:05.193Z,0.16
2022-12-14T02:41:38.407Z,0.16
2022-12-14T02:42:13.544Z,0.12
2022-12-14T02:42:50.751Z,0.14
2022-12-14T02:43:37.495Z,0.16
2022-12-14T02:44:09.122Z,0.13
2022-12-14T02:44:45.263Z,0.12
2022-12-14T02:45:08.831Z,0.15
2022-12-14T02:45:32.115Z,0.13
2022-12-14T02:45:54.635Z,0.14
2022-12-14T02:46:09.465Z,0.17
2022-12-14T02:46:30.372Z,0.19
2022-12-14T02:46:50.396Z,0.18
2022-12-14T02:47:15.629Z,0.18
2022-12-14T02:47:38.365Z,0.13
2022-12-14T02:47:56.264Z,0.16
2022-12-14T02:48:30.621Z,0.17
2022-12-14T02:48:50.043Z,0.18
2022-12-14T02:49:30.275Z,0.20
2022-12-14T02:50:04.794Z,0.15
2022-12-14T02:50:22.347Z,0.14
2022-12-14T02:50:43.914Z,0.13
2022-12-14T02:51:12.169Z,0.12
2022-12-14T02:51:51.320Z,0.13
2022-12-14T02:52:11.024Z,0.15
2022-12-14T02:53:01.276Z,0.16
2022-12-14T02:53:35.362Z,0.11
2022-12-14T02:54:11.842Z,0.10
2022-12-14T02:54:39.088Z,0.12
2022-12-14T02:55:01.637Z,0.15
2022-12-14T02:55:19.893Z,0.12
2022-12-14T02:55:37.427Z,0.10
2022-12-14T02:55:52.309Z,0.10
2022-12-14T02:56:09.492Z,0.11
2022-12-14T02:56:28.155Z,0.01
2022-12-14T02:56:45.183Z,0.04
2022-12-14T02:57:11.290Z,0.06
2022-12-14T02:57:28.465Z,-0.01
2022-12-14T02:58:12.119Z,-0.02
2022-12-14T02:58:34.290Z,-0.01
2022-12-14T02:58:50.425Z,0.01
2022-12-14T02:59:06.611Z,0.05
2022-12-14T02:59:19.706Z,0.04
2022-12-14T02:59:33.814Z,0.06
2022-12-14T02:59:47.227Z,0.06
2022-12-14T03:00:03.337Z,0.06
2022-12-14T03:00:15.884Z,0.08
2022-12-14T03:00:32.226Z,0.06
2022-12-14T03:00:45.139Z,0.04
2022-12-14T03:00:57.645Z,0.07
2022-12-14T03:01:14.590Z,0.05
2022-12-14T03:01:29.994Z,0.09
2022-12-14T03:01:43.444Z,0.11
2022-12-14T03:02:03.027Z,0.15
2022-12-14T03:02:15.673Z,0.15
2022-12-14T03:02:29.573Z,0.17
2022-12-14T03:02:43.956Z,0.18
2022-12-14T03:02:57.522Z,0.17
2022-12-14T03:03:09.805Z,0.20
2022-12-14T03:03:22.051Z,0.22
2022-12-14T03:03:34.104Z,0.24
2022-12-14T03:03:46.317Z,0.25
2022-12-14T03:03:58.539Z,0.28
2022-12-14T03:04:10.905Z,0.27
2022-12-14T03:04:24.318Z,0.24
2022-12-14T03:04:47.309Z,0.25
2022-12-14T03:04:59.230Z,0.21
2022-12-14T03:05:11.577Z,0.23
2022-12-14T03:05:23.534Z,0.25
2022-12-14T03:05:35.892Z,0.24
2022-12-14T03:06:14.533Z,0.26
2022-12-14T03:06:26.832Z,0.26
2022-12-14T03:06:38.756Z,0.25
2022-12-14T03:06:59.202Z,0.29
2022-12-14T03:07:36.662Z,0.30
2022-12-14T03:07:53.070Z,0.34
2022-12-14T03:08:13.435Z,0.35
2022-12-14T03:08:27.734Z,0.39
2022-12-14T03:08:41.505Z,0.34
2022-12-14T03:09:22.508Z,0.34
2022-12-14T03:09:34.717Z,0.28
2022-12-14T03:09:46.598Z,0.28
2022-12-14T03:10:09.464Z,0.23
2022-12-14T03:10:49.886Z,0.25
2022-12-14T03:11:05.947Z,0.27
2022-12-14T03:11:23.575Z,0.30
2022-12-14T03:11:41.090Z,0.30
2022-12-14T03:11:58.651Z,0.31
2022-12-14T03:12:13.371Z,0.30
2022-12-14T03:12:25.585Z,0.32
2022-12-14T03:12:43.682Z,0.33
2022-12-14T03:13:16.602Z,0.29
2022-12-14T03:13:50.352Z,0.30
2022-12-14T03:14:13.438Z,0.32
2022-12-14T03:14:36.734Z,0.33
2022-12-14T03:14:53.096Z,0.34
2022-12-14T03:15:08.694Z,0.33
2022-12-14T03:15:23.462Z,0.33
2022-12-14T03:15:38.302Z,0.37
2022-12-14T03:16:00.310Z,0.37
2022-12-14T03:16:22.288Z,0.38
2022-12-14T03:16:44.302Z,0.35
2022-12-14T03:17:03.393Z,0.35
2022-12-14T03:17:20.079Z,0.35
2022-12-14T03:17:33.989Z,0.37
2022-12-14T03:17:49.196Z,0.35
2022-12-14T03:18:05.711Z,0.31
2022-12-14T03:18:19.737Z,0.26
2022-12-14T03:18:37.474Z,0.29
2022-12-14T03:18:57.700Z,0.30
2022-12-14T03:19:29.452Z,0.31
2022-12-14T03:19:45.899Z,0.29
2022-12-14T03:20:14.693Z,0.28
2022-12-14T03:20:31.614Z,0.22
2022-12-14T03:20:47.420Z,0.26
2022-12-14T03:21:01.473Z,0.30
2022-12-14T03:21:18.918Z,0.31
2022-12-14T03:21:46.594Z,0.31
2022-12-14T03:22:05.956Z,0.29
2022-12-14T03:22:22.313Z,0.32
2022-12-14T03:22:41.822Z,0.18
2022-12-14T03:23:07.102Z,0.22
2022-12-14T03:23:25.181Z,0.23
2022-12-14T03:23:41.002Z,0.25
2022-12-14T03:23:55.353Z,0.22
2022-12-14T03:24:15.069Z,0.24
2022-12-14T03:24:35.917Z,0.28
2022-12-14T03:24:54.080Z,0.30
2022-12-14T03:25:13.390Z,0.29
2022-12-14T03:25:34.101Z,0.24
2022-12-14T03:25:52.711Z,0.12
2022-12-14T03:26:23.596Z,0.20